sensor_id;sensor_type;location;lat;lon;timestamp;pressure;altitude;pressure_sealevel;temperature;humidity
64023;BME280;50264;52.088;5.296;2023-05-12T00:00:46;101666.0;;;13.15;96.97
64023;BME280;50264;52.088;5.296;2023-05-12T00:02:22;101661.0;;;13.18;98.05
64023;BME280;50264;52.088;5.296;2023-05-12T00:03:58;101664.0;;;13.18;97.91
64023;BME280;50264;52.088;5.296;2023-05-12T00:07:10;101667.0;;;13.17;98.07
64023;BME280;50264;52.088;5.296;2023-05-12T00:08:47;101669.0;;;13.2;97.62
64023;BME280;50264;52.088;5.296;2023-05-12T00:10:23;101663.0;;;13.22;98.38
64023;BME280;50264;52.088;5.296;2023-05-12T00:13:37;101666.0;;;13.17;98.1
64023;BME280;50264;52.088;5.296;2023-05-12T00:15:13;101665.0;;;13.13;97.23
64023;BME280;50264;52.088;5.296;2023-05-12T00:16:49;101662.0;;;13.13;98.6
64023;BME280;50264;52.088;5.296;2023-05-12T00:18:25;101661.0;;;13.15;97.8
64023;BME280;50264;52.088;5.296;2023-05-12T00:21:39;101663.0;;;13.17;98.69
64023;BME280;50264;52.088;5.296;2023-05-12T00:23:15;101659.0;;;13.18;98.32
64023;BME280;50264;52.088;5.296;2023-05-12T00:24:51;101661.0;;;13.14;99.11
64023;BME280;50264;52.088;5.296;2023-05-12T00:28:04;101659.0;;;13.18;98.6
64023;BME280;50264;52.088;5.296;2023-05-12T00:29:40;101657.0;;;13.05;98.97
64023;BME280;50264;52.088;5.296;2023-05-12T00:31:17;101652.0;;;13.15;98.73
64023;BME280;50264;52.088;5.296;2023-05-12T00:34:29;101650.0;;;13.13;99.02
64023;BME280;50264;52.088;5.296;2023-05-12T00:36:06;101650.0;;;13.12;99.51
64023;BME280;50264;52.088;5.296;2023-05-12T00:37:42;101647.0;;;13.11;99.19
64023;BME280;50264;52.088;5.296;2023-05-12T00:42:33;101642.0;;;13.13;99.62
64023;BME280;50264;52.088;5.296;2023-05-12T00:44:09;101642.0;;;13.13;99.93
64023;BME280;50264;52.088;5.296;2023-05-12T00:45:45;101646.0;;;13.17;100.0
64023;BME280;50264;52.088;5.296;2023-05-12T00:48:57;101638.0;;;13.29;99.23
64023;BME280;50264;52.088;5.296;2023-05-12T00:50:34;101637.0;;;13.26;99.52
64023;BME280;50264;52.088;5.296;2023-05-12T00:52:10;101644.0;;;13.2;99.91
64023;BME280;50264;52.088;5.296;2023-05-12T00:55:23;101638.0;;;13.13;99.54
64023;BME280;50264;52.088;5.296;2023-05-12T00:57:00;101639.0;;;13.06;99.79
64023;BME280;50264;52.088;5.296;2023-05-12T00:58:37;101644.0;;;13.06;100.0
64023;BME280;50264;52.088;5.296;2023-05-12T01:00:13;101640.0;;;13.12;100.0
64023;BME280;50264;52.088;5.296;2023-05-12T01:03:25;101642.0;;;13.12;100.0
64023;BME280;50264;52.088;5.296;2023-05-12T01:05:02;101642.0;;;13.16;99.94
64023;BME280;50264;52.088;5.296;2023-05-12T01:06:44;101643.0;;;13.16;100.0
64023;BME280;50264;52.088;5.296;2023-05-12T01:09:59;101639.0;;;13.17;100.0
64023;BME280;50264;52.088;5.296;2023-05-12T01:11:36;101637.0;;;13.06;100.0
64023;BME280;50264;52.088;5.296;2023-05-12T01:13:12;101627.0;;;13.15;100.0
64023;BME280;50264;52.088;5.296;2023-05-12T01:14:49;101630.0;;;13.13;100.0
64023;BME280;50264;52.088;5.296;2023-05-12T01:18:10;101627.0;;;13.14;99.65
64023;BME280;50264;52.088;5.296;2023-05-12T01:19:48;101621.0;;;13.15;99.79
64023;BME280;50264;52.088;5.296;2023-05-12T01:21:26;101623.0;;;13.08;99.51
64023;BME280;50264;52.088;5.296;2023-05-12T01:24:45;101623.0;;;13.14;99.49
64023;BME280;50264;52.088;5.296;2023-05-12T01:26:25;101616.0;;;13.21;99.6
64023;BME280;50264;52.088;5.296;2023-05-12T01:28:02;101615.0;;;13.19;99.22
64023;BME280;50264;52.088;5.296;2023-05-12T01:29:39;101615.0;;;13.16;100.0
64023;BME280;50264;52.088;5.296;2023-05-12T01:32:52;101614.0;;;13.06;99.92
64023;BME280;50264;52.088;5.296;2023-05-12T01:34:28;101609.0;;;13.07;100.0
64023;BME280;50264;52.088;5.296;2023-05-12T01:36:05;101611.0;;;13.17;100.0
64023;BME280;50264;52.088;5.296;2023-05-12T01:39:17;101609.0;;;13.12;100.0
64023;BME280;50264;52.088;5.296;2023-05-12T01:40:54;101610.0;;;13.06;100.0
64023;BME280;50264;52.088;5.296;2023-05-12T01:42:30;101605.0;;;13.06;100.0
64023;BME280;50264;52.088;5.296;2023-05-12T01:44:06;101609.0;;;13.15;100.0
64023;BME280;50264;52.088;5.296;2023-05-12T01:47:18;101603.0;;;13.06;100.0
64023;BME280;50264;52.088;5.296;2023-05-12T01:48:54;101608.0;;;13.13;100.0
64023;BME280;50264;52.088;5.296;2023-05-12T01:53:43;101603.0;;;13.26;100.0
64023;BME280;50264;52.088;5.296;2023-05-12T01:55:19;101602.0;;;13.07;100.0
64023;BME280;50264;52.088;5.296;2023-05-12T01:56:55;101602.0;;;13.11;100.0
64023;BME280;50264;52.088;5.296;2023-05-12T02:00:08;101603.0;;;13.2;100.0
64023;BME280;50264;52.088;5.296;2023-05-12T02:01:44;101603.0;;;13.08;100.0
64023;BME280;50264;52.088;5.296;2023-05-12T02:03:21;101607.0;;;13.09;100.0
64023;BME280;50264;52.088;5.296;2023-05-12T02:06:33;101606.0;;;13.17;100.0
64023;BME280;50264;52.088;5.296;2023-05-12T02:08:09;101602.0;;;13.13;100.0
64023;BME280;50264;52.088;5.296;2023-05-12T02:09:45;101605.0;;;13.1;100.0
64023;BME280;50264;52.088;5.296;2023-05-12T02:11:22;101610.0;;;12.98;100.0
64023;BME280;50264;52.088;5.296;2023-05-12T02:14:34;101606.0;;;12.96;100.0
64023;BME280;50264;52.088;5.296;2023-05-12T02:16:10;101605.0;;;13.03;100.0
64023;BME280;50264;52.088;5.296;2023-05-12T02:17:47;101608.0;;;13.05;100.0
64023;BME280;50264;52.088;5.296;2023-05-12T02:20:59;101606.0;;;13.06;100.0
64023;BME280;50264;52.088;5.296;2023-05-12T02:22:35;101605.0;;;13.0;100.0
64023;BME280;50264;52.088;5.296;2023-05-12T02:24:12;101601.0;;;13.12;100.0
64023;BME280;50264;52.088;5.296;2023-05-12T02:27:24;101597.0;;;13.08;100.0
64023;BME280;50264;52.088;5.296;2023-05-12T02:29:00;101597.0;;;13.2;100.0
64023;BME280;50264;52.088;5.296;2023-05-12T02:30:36;101600.0;;;13.28;100.0
64023;BME280;50264;52.088;5.296;2023-05-12T02:32:12;101602.0;;;13.25;100.0
64023;BME280;50264;52.088;5.296;2023-05-12T02:35:25;101598.0;;;13.22;100.0
64023;BME280;50264;52.088;5.296;2023-05-12T02:37:01;101598.0;;;13.28;100.0
64023;BME280;50264;52.088;5.296;2023-05-12T02:38:37;101598.0;;;13.22;100.0
64023;BME280;50264;52.088;5.296;2023-05-12T02:41:49;101594.0;;;13.24;100.0
64023;BME280;50264;52.088;5.296;2023-05-12T02:43:25;101590.0;;;13.4;100.0
64023;BME280;50264;52.088;5.296;2023-05-12T02:45:02;101585.0;;;13.34;100.0
64023;BME280;50264;52.088;5.296;2023-05-12T02:48:14;101591.0;;;13.3;100.0
64023;BME280;50264;52.088;5.296;2023-05-12T02:49:50;101589.0;;;13.28;100.0
64023;BME280;50264;52.088;5.296;2023-05-12T02:51:26;101585.0;;;13.3;100.0
64023;BME280;50264;52.088;5.296;2023-05-12T02:54:38;101586.0;;;13.2;100.0
64023;BME280;50264;52.088;5.296;2023-05-12T02:56:14;101590.0;;;13.24;100.0
64023;BME280;50264;52.088;5.296;2023-05-12T02:57:50;101588.0;;;13.23;100.0
64023;BME280;50264;52.088;5.296;2023-05-12T02:59:26;101582.0;;;13.24;100.0
64023;BME280;50264;52.088;5.296;2023-05-12T03:02:40;101583.0;;;13.29;100.0
64023;BME280;50264;52.088;5.296;2023-05-12T03:04:15;101574.0;;;13.32;100.0
64023;BME280;50264;52.088;5.296;2023-05-12T03:05:51;101582.0;;;13.22;100.0
64023;BME280;50264;52.088;5.296;2023-05-12T03:09:04;101584.0;;;13.12;100.0
64023;BME280;50264;52.088;5.296;2023-05-12T03:10:40;101581.0;;;13.1;100.0
64023;BME280;50264;52.088;5.296;2023-05-12T03:12:16;101583.0;;;13.16;100.0
64023;BME280;50264;52.088;5.296;2023-05-12T03:15:28;101580.0;;;13.08;100.0
64023;BME280;50264;52.088;5.296;2023-05-12T03:17:04;101580.0;;;12.99;100.0
64023;BME280;50264;52.088;5.296;2023-05-12T03:18:40;101581.0;;;12.93;100.0
64023;BME280;50264;52.088;5.296;2023-05-12T03:21:53;101578.0;;;12.99;100.0
64023;BME280;50264;52.088;5.296;2023-05-12T03:23:29;101578.0;;;12.91;100.0
64023;BME280;50264;52.088;5.296;2023-05-12T03:25:08;101578.0;;;12.85;100.0
64023;BME280;50264;52.088;5.296;2023-05-12T03:26:44;101580.0;;;12.86;100.0
64023;BME280;50264;52.088;5.296;2023-05-12T03:29:57;101575.0;;;12.87;100.0
64023;BME280;50264;52.088;5.296;2023-05-12T03:31:33;101570.0;;;12.97;100.0
64023;BME280;50264;52.088;5.296;2023-05-12T03:33:09;101572.0;;;12.93;100.0
64023;BME280;50264;52.088;5.296;2023-05-12T03:36:21;101568.0;;;13.06;100.0
64023;BME280;50264;52.088;5.296;2023-05-12T03:37:57;101568.0;;;12.95;100.0
64023;BME280;50264;52.088;5.296;2023-05-12T03:39:33;101568.0;;;12.94;100.0
64023;BME280;50264;52.088;5.296;2023-05-12T03:42:46;101571.0;;;13.04;100.0
64023;BME280;50264;52.088;5.296;2023-05-12T03:44:22;101567.0;;;13.01;100.0
64023;BME280;50264;52.088;5.296;2023-05-12T03:45:58;101569.0;;;13.01;100.0
64023;BME280;50264;52.088;5.296;2023-05-12T03:47:34;101564.0;;;12.95;100.0
64023;BME280;50264;52.088;5.296;2023-05-12T03:50:46;101571.0;;;12.98;100.0
64023;BME280;50264;52.088;5.296;2023-05-12T03:52:23;101565.0;;;12.95;100.0
64023;BME280;50264;52.088;5.296;2023-05-12T03:53:59;101572.0;;;12.78;100.0
64023;BME280;50264;52.088;5.296;2023-05-12T03:57:11;101565.0;;;12.83;100.0
64023;BME280;50264;52.088;5.296;2023-05-12T03:58:47;101567.0;;;12.89;100.0
64023;BME280;50264;52.088;5.296;2023-05-12T04:00:23;101570.0;;;12.95;100.0
64023;BME280;50264;52.088;5.296;2023-05-12T04:03:36;101569.0;;;12.86;100.0
64023;BME280;50264;52.088;5.296;2023-05-12T04:05:13;101565.0;;;12.87;100.0
64023;BME280;50264;52.088;5.296;2023-05-12T04:06:49;101570.0;;;12.86;100.0
64023;BME280;50264;52.088;5.296;2023-05-12T04:10:01;101567.0;;;12.94;100.0
64023;BME280;50264;52.088;5.296;2023-05-12T04:11:37;101564.0;;;12.88;100.0
64023;BME280;50264;52.088;5.296;2023-05-12T04:13:13;101553.0;;;12.94;100.0
64023;BME280;50264;52.088;5.296;2023-05-12T04:14:50;101553.0;;;12.9;100.0
64023;BME280;50264;52.088;5.296;2023-05-12T04:18:02;101560.0;;;12.84;100.0
64023;BME280;50264;52.088;5.296;2023-05-12T04:19:38;101565.0;;;12.81;100.0
64023;BME280;50264;52.088;5.296;2023-05-12T04:21:14;101561.0;;;12.97;100.0
64023;BME280;50264;52.088;5.296;2023-05-12T04:24:26;101560.0;;;12.87;100.0
64023;BME280;50264;52.088;5.296;2023-05-12T04:26:03;101564.0;;;12.91;100.0
64023;BME280;50264;52.088;5.296;2023-05-12T04:27:39;101565.0;;;12.96;100.0
64023;BME280;50264;52.088;5.296;2023-05-12T04:30:51;101565.0;;;12.92;100.0
64023;BME280;50264;52.088;5.296;2023-05-12T04:32:27;101567.0;;;12.93;100.0
64023;BME280;50264;52.088;5.296;2023-05-12T04:34:03;101574.0;;;13.0;100.0
64023;BME280;50264;52.088;5.296;2023-05-12T04:35:39;101573.0;;;13.01;100.0
64023;BME280;50264;52.088;5.296;2023-05-12T04:38:52;101574.0;;;12.95;100.0
64023;BME280;50264;52.088;5.296;2023-05-12T04:40:28;101582.0;;;13.07;100.0
64023;BME280;50264;52.088;5.296;2023-05-12T04:42:04;101577.0;;;13.08;100.0
64023;BME280;50264;52.088;5.296;2023-05-12T04:45:17;101578.0;;;13.15;100.0
64023;BME280;50264;52.088;5.296;2023-05-12T04:46:52;101580.0;;;13.11;100.0
64023;BME280;50264;52.088;5.296;2023-05-12T04:48:29;101586.0;;;13.16;100.0
64023;BME280;50264;52.088;5.296;2023-05-12T04:51:42;101581.0;;;13.11;100.0
64023;BME280;50264;52.088;5.296;2023-05-12T04:53:18;101586.0;;;13.1;100.0
64023;BME280;50264;52.088;5.296;2023-05-12T04:54:54;101587.0;;;13.14;100.0
64023;BME280;50264;52.088;5.296;2023-05-12T04:58:06;101590.0;;;13.15;100.0
64023;BME280;50264;52.088;5.296;2023-05-12T04:59:42;101585.0;;;13.27;100.0
64023;BME280;50264;52.088;5.296;2023-05-12T05:01:18;101586.0;;;13.37;100.0
64023;BME280;50264;52.088;5.296;2023-05-12T05:02:54;101592.0;;;13.39;100.0
64023;BME280;50264;52.088;5.296;2023-05-12T05:06:06;101594.0;;;13.39;100.0
64023;BME280;50264;52.088;5.296;2023-05-12T05:07:42;101602.0;;;13.39;100.0
64023;BME280;50264;52.088;5.296;2023-05-12T05:09:19;101599.0;;;13.34;100.0
64023;BME280;50264;52.088;5.296;2023-05-12T05:12:31;101601.0;;;13.52;100.0
64023;BME280;50264;52.088;5.296;2023-05-12T05:14:07;101606.0;;;13.44;100.0
64023;BME280;50264;52.088;5.296;2023-05-12T05:15:53;101619.0;;;13.47;100.0
64023;BME280;50264;52.088;5.296;2023-05-12T05:17:29;101614.0;;;13.43;100.0
64023;BME280;50264;52.088;5.296;2023-05-12T05:20:42;101624.0;;;13.48;100.0
64023;BME280;50264;52.088;5.296;2023-05-12T05:22:18;101618.0;;;13.57;100.0
64023;BME280;50264;52.088;5.296;2023-05-12T05:23:54;101620.0;;;13.59;100.0
64023;BME280;50264;52.088;5.296;2023-05-12T05:27:06;101619.0;;;13.52;100.0
64023;BME280;50264;52.088;5.296;2023-05-12T05:28:42;101623.0;;;13.54;100.0
64023;BME280;50264;52.088;5.296;2023-05-12T05:30:19;101625.0;;;13.58;100.0
64023;BME280;50264;52.088;5.296;2023-05-12T05:33:31;101625.0;;;13.54;100.0
64023;BME280;50264;52.088;5.296;2023-05-12T05:35:07;101618.0;;;13.51;100.0
64023;BME280;50264;52.088;5.296;2023-05-12T05:36:43;101620.0;;;13.65;100.0
64023;BME280;50264;52.088;5.296;2023-05-12T05:39:55;101619.0;;;13.73;100.0
64023;BME280;50264;52.088;5.296;2023-05-12T05:41:32;101620.0;;;13.77;100.0
64023;BME280;50264;52.088;5.296;2023-05-12T05:43:08;101620.0;;;13.7;100.0
64023;BME280;50264;52.088;5.296;2023-05-12T05:44:44;101621.0;;;13.75;100.0
64023;BME280;50264;52.088;5.296;2023-05-12T05:47:56;101625.0;;;13.83;100.0
64023;BME280;50264;52.088;5.296;2023-05-12T05:49:32;101626.0;;;13.82;100.0
64023;BME280;50264;52.088;5.296;2023-05-12T05:51:08;101627.0;;;13.86;100.0
64023;BME280;50264;52.088;5.296;2023-05-12T05:54:22;101628.0;;;13.81;100.0
64023;BME280;50264;52.088;5.296;2023-05-12T05:55:58;101626.0;;;13.84;100.0
64023;BME280;50264;52.088;5.296;2023-05-12T05:57:34;101631.0;;;13.9;100.0
64023;BME280;50264;52.088;5.296;2023-05-12T06:00:46;101639.0;;;13.9;100.0
64023;BME280;50264;52.088;5.296;2023-05-12T06:02:22;101635.0;;;13.86;100.0
64023;BME280;50264;52.088;5.296;2023-05-12T06:03:59;101642.0;;;13.91;100.0
64023;BME280;50264;52.088;5.296;2023-05-12T06:05:35;101650.0;;;13.93;100.0
64023;BME280;50264;52.088;5.296;2023-05-12T06:08:47;101648.0;;;13.9;100.0
64023;BME280;50264;52.088;5.296;2023-05-12T06:10:23;101649.0;;;13.96;100.0
64023;BME280;50264;52.088;5.296;2023-05-12T06:11:59;101652.0;;;13.98;100.0
64023;BME280;50264;52.088;5.296;2023-05-12T06:15:12;101648.0;;;14.0;100.0
64023;BME280;50264;52.088;5.296;2023-05-12T06:16:48;101655.0;;;13.93;100.0
64023;BME280;50264;52.088;5.296;2023-05-12T06:18:24;101656.0;;;13.96;100.0
64023;BME280;50264;52.088;5.296;2023-05-12T06:21:36;101661.0;;;14.1;100.0
64023;BME280;50264;52.088;5.296;2023-05-12T06:23:12;101661.0;;;14.05;100.0
64023;BME280;50264;52.088;5.296;2023-05-12T06:24:49;101660.0;;;14.1;100.0
64023;BME280;50264;52.088;5.296;2023-05-12T06:28:01;101662.0;;;14.03;100.0
64023;BME280;50264;52.088;5.296;2023-05-12T06:29:37;101670.0;;;14.1;100.0
64023;BME280;50264;52.088;5.296;2023-05-12T06:31:13;101670.0;;;14.18;100.0
64023;BME280;50264;52.088;5.296;2023-05-12T06:32:49;101674.0;;;14.28;100.0
64023;BME280;50264;52.088;5.296;2023-05-12T06:36:01;101671.0;;;14.25;100.0
64023;BME280;50264;52.088;5.296;2023-05-12T06:37:38;101676.0;;;14.18;100.0
64023;BME280;50264;52.088;5.296;2023-05-12T06:39:14;101676.0;;;14.21;100.0
64023;BME280;50264;52.088;5.296;2023-05-12T06:42:26;101669.0;;;14.33;100.0
64023;BME280;50264;52.088;5.296;2023-05-12T06:44:02;101675.0;;;14.29;100.0
64023;BME280;50264;52.088;5.296;2023-05-12T06:45:38;101672.0;;;14.34;100.0
64023;BME280;50264;52.088;5.296;2023-05-12T06:48:51;101675.0;;;14.55;100.0
64023;BME280;50264;52.088;5.296;2023-05-12T06:50:27;101675.0;;;14.54;100.0
64023;BME280;50264;52.088;5.296;2023-05-12T06:52:03;101674.0;;;14.51;100.0
64023;BME280;50264;52.088;5.296;2023-05-12T06:55:16;101683.0;;;14.66;100.0
64023;BME280;50264;52.088;5.296;2023-05-12T06:56:52;101687.0;;;14.74;100.0
64023;BME280;50264;52.088;5.296;2023-05-12T06:58:29;101689.0;;;14.69;100.0
64023;BME280;50264;52.088;5.296;2023-05-12T07:00:06;101690.0;;;14.57;100.0
64023;BME280;50264;52.088;5.296;2023-05-12T07:03:19;101689.0;;;14.64;100.0
64023;BME280;50264;52.088;5.296;2023-05-12T07:04:55;101695.0;;;14.65;100.0
64023;BME280;50264;52.088;5.296;2023-05-12T07:06:31;101698.0;;;14.72;100.0
64023;BME280;50264;52.088;5.296;2023-05-12T07:09:44;101699.0;;;14.68;100.0
64023;BME280;50264;52.088;5.296;2023-05-12T07:11:20;101694.0;;;14.62;100.0
64023;BME280;50264;52.088;5.296;2023-05-12T07:12:56;101695.0;;;14.63;100.0
64023;BME280;50264;52.088;5.296;2023-05-12T07:16:08;101696.0;;;14.74;100.0
64023;BME280;50264;52.088;5.296;2023-05-12T07:17:44;101698.0;;;14.77;100.0
64023;BME280;50264;52.088;5.296;2023-05-12T07:19:20;101702.0;;;14.8;100.0
64023;BME280;50264;52.088;5.296;2023-05-12T07:20:57;101702.0;;;14.78;100.0
64023;BME280;50264;52.088;5.296;2023-05-12T07:24:09;101705.0;;;14.79;100.0
64023;BME280;50264;52.088;5.296;2023-05-12T07:25:45;101705.0;;;14.83;100.0
64023;BME280;50264;52.088;5.296;2023-05-12T07:27:21;101705.0;;;14.96;100.0
64023;BME280;50264;52.088;5.296;2023-05-12T07:30:33;101705.0;;;15.07;100.0
64023;BME280;50264;52.088;5.296;2023-05-12T07:32:11;101703.0;;;15.29;100.0
64023;BME280;50264;52.088;5.296;2023-05-12T07:33:47;101709.0;;;15.37;99.45
64023;BME280;50264;52.088;5.296;2023-05-12T07:36:59;101710.0;;;15.44;100.0
64023;BME280;50264;52.088;5.296;2023-05-12T07:38:35;101716.0;;;15.43;99.74
64023;BME280;50264;52.088;5.296;2023-05-12T07:40:11;101712.0;;;15.54;99.26
64023;BME280;50264;52.088;5.296;2023-05-12T07:43:23;101713.0;;;15.68;98.56
64023;BME280;50264;52.088;5.296;2023-05-12T07:45:00;101715.0;;;15.79;98.91
64023;BME280;50264;52.088;5.296;2023-05-12T07:46:36;101717.0;;;15.72;97.17
64023;BME280;50264;52.088;5.296;2023-05-12T07:48:12;101717.0;;;15.76;96.73
64023;BME280;50264;52.088;5.296;2023-05-12T07:51:24;101712.0;;;16.02;97.39
64023;BME280;50264;52.088;5.296;2023-05-12T07:53:00;101716.0;;;16.09;98.43
64023;BME280;50264;52.088;5.296;2023-05-12T07:54:36;101714.0;;;16.18;97.71
64023;BME280;50264;52.088;5.296;2023-05-12T07:57:49;101715.0;;;16.23;97.73
64023;BME280;50264;52.088;5.296;2023-05-12T07:59:25;101725.0;;;16.45;96.92
64023;BME280;50264;52.088;5.296;2023-05-12T08:01:01;101730.0;;;16.41;96.87
64023;BME280;50264;52.088;5.296;2023-05-12T08:04:14;101726.0;;;16.47;95.29
64023;BME280;50264;52.088;5.296;2023-05-12T08:05:50;101731.0;;;16.59;95.27
64023;BME280;50264;52.088;5.296;2023-05-12T08:07:26;101727.0;;;16.61;94.6
64023;BME280;50264;52.088;5.296;2023-05-12T08:09:03;101730.0;;;16.52;94.55
64023;BME280;50264;52.088;5.296;2023-05-12T08:12:15;101732.0;;;16.64;92.53
64023;BME280;50264;52.088;5.296;2023-05-12T08:13:51;101728.0;;;16.64;93.59
64023;BME280;50264;52.088;5.296;2023-05-12T08:15:28;101728.0;;;16.68;90.64
64023;BME280;50264;52.088;5.296;2023-05-12T08:18:40;101727.0;;;16.77;90.92
64023;BME280;50264;52.088;5.296;2023-05-12T08:20:17;101733.0;;;16.84;91.08
64023;BME280;50264;52.088;5.296;2023-05-12T08:21:53;101738.0;;;16.84;89.4
64023;BME280;50264;52.088;5.296;2023-05-12T08:25:06;101737.0;;;16.95;87.26
64023;BME280;50264;52.088;5.296;2023-05-12T08:26:42;101740.0;;;16.96;89.25
64023;BME280;50264;52.088;5.296;2023-05-12T08:28:18;101745.0;;;17.06;88.17
64023;BME280;50264;52.088;5.296;2023-05-12T08:31:31;101742.0;;;17.06;85.88
64023;BME280;50264;52.088;5.296;2023-05-12T08:33:07;101743.0;;;17.18;90.43
64023;BME280;50264;52.088;5.296;2023-05-12T08:34:43;101741.0;;;17.11;89.45
64023;BME280;50264;52.088;5.296;2023-05-12T08:36:19;101740.0;;;17.12;89.58
64023;BME280;50264;52.088;5.296;2023-05-12T08:39:32;101747.0;;;17.23;90.02
64023;BME280;50264;52.088;5.296;2023-05-12T08:41:13;101752.0;;;17.25;87.28
64023;BME280;50264;52.088;5.296;2023-05-12T08:43:06;101752.0;;;17.41;90.3
64023;BME280;50264;52.088;5.296;2023-05-12T08:44:53;101749.0;;;17.45;89.45
64023;BME280;50264;52.088;5.296;2023-05-12T08:48:08;101753.0;;;17.63;87.99
64023;BME280;50264;52.088;5.296;2023-05-12T08:49:48;101759.0;;;17.75;85.84
64023;BME280;50264;52.088;5.296;2023-05-12T08:51:31;101763.0;;;17.81;84.87
64023;BME280;50264;52.088;5.296;2023-05-12T08:53:09;101760.0;;;17.81;83.67
64023;BME280;50264;52.088;5.296;2023-05-12T08:56:24;101762.0;;;17.87;85.33
64023;BME280;50264;52.088;5.296;2023-05-12T08:58:01;101759.0;;;18.11;85.73
64023;BME280;50264;52.088;5.296;2023-05-12T08:59:41;101758.0;;;18.2;85.97
64023;BME280;50264;52.088;5.296;2023-05-12T09:01:19;101755.0;;;18.28;82.58
64023;BME280;50264;52.088;5.296;2023-05-12T09:04:33;101763.0;;;18.31;79.69
64023;BME280;50264;52.088;5.296;2023-05-12T09:06:09;101771.0;;;18.38;78.91
64023;BME280;50264;52.088;5.296;2023-05-12T09:07:47;101772.0;;;18.46;77.24
64023;BME280;50264;52.088;5.296;2023-05-12T09:11:03;101771.0;;;18.66;82.05
64023;BME280;50264;52.088;5.296;2023-05-12T09:12:41;101765.0;;;18.88;82.62
64023;BME280;50264;52.088;5.296;2023-05-12T09:14:23;101768.0;;;18.81;76.27
64023;BME280;50264;52.088;5.296;2023-05-12T09:16:01;101775.0;;;18.91;79.91
64023;BME280;50264;52.088;5.296;2023-05-12T09:19:18;101778.0;;;18.98;77.11
64023;BME280;50264;52.088;5.296;2023-05-12T09:20:55;101774.0;;;19.0;77.66
64023;BME280;50264;52.088;5.296;2023-05-12T09:22:32;101778.0;;;19.09;75.37
64023;BME280;50264;52.088;5.296;2023-05-12T09:25:45;101776.0;;;19.09;72.92
64023;BME280;50264;52.088;5.296;2023-05-12T09:27:23;101775.0;;;19.09;77.61
64023;BME280;50264;52.088;5.296;2023-05-12T09:29:04;101774.0;;;19.14;74.11
64023;BME280;50264;52.088;5.296;2023-05-12T09:30:41;101776.0;;;19.23;76.47
64023;BME280;50264;52.088;5.296;2023-05-12T09:34:06;101774.0;;;19.34;74.72
64023;BME280;50264;52.088;5.296;2023-05-12T09:35:44;101771.0;;;19.54;75.47
64023;BME280;50264;52.088;5.296;2023-05-12T09:37:29;101776.0;;;19.47;69.22
64023;BME280;50264;52.088;5.296;2023-05-12T09:39:07;101768.0;;;19.55;78.59
64023;BME280;50264;52.088;5.296;2023-05-12T09:42:22;101780.0;;;19.5;75.87
64023;BME280;50264;52.088;5.296;2023-05-12T09:44:00;101786.0;;;19.52;73.69
64023;BME280;50264;52.088;5.296;2023-05-12T09:45:37;101788.0;;;19.53;74.16
64023;BME280;50264;52.088;5.296;2023-05-12T09:48:50;101791.0;;;19.5;73.05
64023;BME280;50264;52.088;5.296;2023-05-12T09:50:26;101793.0;;;19.5;72.06
64023;BME280;50264;52.088;5.296;2023-05-12T09:52:03;101796.0;;;19.5;72.12
64023;BME280;50264;52.088;5.296;2023-05-12T09:53:40;101797.0;;;19.52;73.44
64023;BME280;50264;52.088;5.296;2023-05-12T09:56:56;101796.0;;;19.46;76.3
64023;BME280;50264;52.088;5.296;2023-05-12T09:58:33;101797.0;;;19.68;78.34
64023;BME280;50264;52.088;5.296;2023-05-12T10:00:12;101793.0;;;19.95;75.11
64023;BME280;50264;52.088;5.296;2023-05-12T10:03:28;101798.0;;;20.0;74.42
64023;BME280;50264;52.088;5.296;2023-05-12T10:05:09;101796.0;;;20.0;71.66
64023;BME280;50264;52.088;5.296;2023-05-12T10:06:50;101803.0;;;19.89;69.89
64023;BME280;50264;52.088;5.296;2023-05-12T10:08:32;101796.0;;;20.02;68.16
64023;BME280;50264;52.088;5.296;2023-05-12T10:11:49;101800.0;;;20.05;68.8
64023;BME280;50264;52.088;5.296;2023-05-12T10:13:26;101801.0;;;20.11;67.67
64023;BME280;50264;52.088;5.296;2023-05-12T10:15:05;101805.0;;;20.25;66.55
64023;BME280;50264;52.088;5.296;2023-05-12T10:16:45;101806.0;;;20.29;65.33
64023;BME280;50264;52.088;5.296;2023-05-12T10:19:59;101805.0;;;20.31;65.05
64023;BME280;50264;52.088;5.296;2023-05-12T10:21:37;101802.0;;;20.29;66.05
64023;BME280;50264;52.088;5.296;2023-05-12T10:23:17;101798.0;;;20.48;69.48
64023;BME280;50264;52.088;5.296;2023-05-12T10:26:32;101802.0;;;20.31;69.52
64023;BME280;50264;52.088;5.296;2023-05-12T10:28:08;101805.0;;;20.36;68.69
64023;BME280;50264;52.088;5.296;2023-05-12T10:29:46;101807.0;;;20.45;68.27
64023;BME280;50264;52.088;5.296;2023-05-12T10:31:22;101805.0;;;20.41;67.47
64023;BME280;50264;52.088;5.296;2023-05-12T10:34:36;101799.0;;;20.51;69.62
64023;BME280;50264;52.088;5.296;2023-05-12T10:36:16;101798.0;;;20.68;72.58
64023;BME280;50264;52.088;5.296;2023-05-12T10:37:53;101799.0;;;20.76;69.2
64023;BME280;50264;52.088;5.296;2023-05-12T10:41:06;101800.0;;;20.79;68.09
64023;BME280;50264;52.088;5.296;2023-05-12T10:42:42;101802.0;;;20.94;66.45
64023;BME280;50264;52.088;5.296;2023-05-12T10:44:25;101801.0;;;21.1;62.24
64023;BME280;50264;52.088;5.296;2023-05-12T10:46:06;101792.0;;;21.1;62.68
64023;BME280;50264;52.088;5.296;2023-05-12T10:49:30;101794.0;;;21.3;66.13
64023;BME280;50264;52.088;5.296;2023-05-12T10:51:07;101801.0;;;21.46;60.43
64023;BME280;50264;52.088;5.296;2023-05-12T10:52:51;101792.0;;;21.63;60.21
64023;BME280;50264;52.088;5.296;2023-05-12T10:54:29;101794.0;;;21.82;59.68
64023;BME280;50264;52.088;5.296;2023-05-12T10:57:49;101793.0;;;21.95;58.15
64023;BME280;50264;52.088;5.296;2023-05-12T10:59:25;101798.0;;;22.27;61.35
64023;BME280;50264;52.088;5.296;2023-05-12T11:01:04;101783.0;;;22.5;56.86
64023;BME280;50264;52.088;5.296;2023-05-12T11:02:48;101790.0;;;22.51;54.36
64023;BME280;50264;52.088;5.296;2023-05-12T11:06:17;101780.0;;;22.55;60.1
64023;BME280;50264;52.088;5.296;2023-05-12T11:07:54;101795.0;;;22.45;54.09
64023;BME280;50264;52.088;5.296;2023-05-12T11:09:30;101786.0;;;22.38;60.46